Time;durP1;ratioP1;P1;durP2;ratioP2;P2;SDS_P1;SDS_P2;PMS_P1;PMS_P2;Temp;Humidity;BMP_temperature;BMP_pressure;BME280_temperature;BME280_humidity;BME280_pressure;Samples;Min_cycle;Max_cycle;Signal;HPM_P1;HPM_P2
2021/08/19 00:00:07;;;;;;;3.88;2.80;;;;;22.10;101177.00;;;;5066285;28;20199;-77
2021/08/19 00:02:35;;;;;;;3.78;3.42;;;;;22.10;101185.00;;;;5069961;28;20209;-77
2021/08/19 00:05:03;;;;;;;4.03;3.60;;;;;22.10;101177.00;;;;5070252;28;20207;-77
2021/08/19 00:07:31;;;;;;;4.88;3.42;;;;;22.10;101183.00;;;;5069868;28;20727;-77
2021/08/19 00:09:58;;;;;;;4.22;3.22;;;;;22.10;101183.00;;;;5070050;28;20222;-77
2021/08/19 00:12:26;;;;;;;3.40;2.78;;;;;22.10;101176.00;;;;5069361;28;20478;-77
2021/08/19 00:14:53;;;;;;;3.67;3.22;;;;;22.10;101171.00;;;;5053814;28;20466;-77
2021/08/19 00:17:20;;;;;;;7.95;3.78;;;;;22.10;101170.00;;;;5049869;28;20208;-77
2021/08/19 00:19:47;;;;;;;3.97;3.35;;;;;22.00;101174.00;;;;5050039;28;20202;-77
2021/08/19 00:22:16;;;;;;;3.80;3.08;;;;;22.00;101172.00;;;;5049752;28;20214;-77
2021/08/19 00:24:43;;;;;;;4.28;3.35;;;;;22.00;101167.00;;;;5049225;28;20192;-77
2021/08/19 00:27:10;;;;;;;4.50;3.30;;;;;22.00;101171.00;;;;5066372;28;20202;-77
2021/08/19 00:29:38;;;;;;;4.75;3.53;;;;;22.00;101168.00;;;;5069557;28;20203;-78
2021/08/19 00:32:06;;;;;;;4.50;3.65;;;;;21.90;101164.00;;;;5052204;28;20235;-77
2021/08/19 00:34:33;;;;;;;4.93;3.58;;;;;21.90;101171.00;;;;5049233;28;20579;-77
2021/08/19 00:37:00;;;;;;;4.57;3.45;;;;;21.90;101165.00;;;;5049144;28;20235;-77
2021/08/19 00:39:30;;;;;;;5.32;3.50;;;;;21.80;101160.00;;;;5048925;28;20200;-77
2021/08/19 00:41:57;;;;;;;4.13;3.30;;;;;21.80;101160.00;;;;5049510;28;20562;-77
2021/08/19 00:44:25;;;;;;;6.60;3.53;;;;;21.80;101167.00;;;;5049127;28;20207;-78
2021/08/19 00:46:52;;;;;;;4.35;3.55;;;;;21.80;101167.00;;;;5049499;28;20597;-78
2021/08/19 00:49:19;;;;;;;5.38;3.95;;;;;21.80;101167.00;;;;5049312;28;20216;-78
2021/08/19 00:51:49;;;;;;;5.10;3.72;;;;;21.80;101164.00;;;;5048670;28;20701;-77
2021/08/19 00:54:20;;;;;;;4.40;3.75;;;;;21.70;101163.00;;;;5048564;28;20658;-77
2021/08/19 00:56:51;;;;;;;4.53;3.33;;;;;21.70;101155.00;;;;5048953;28;20188;-77
2021/08/19 00:59:23;;;;;;;4.68;3.45;;;;;21.70;101163.00;;;;5049391;28;20191;-77
2021/08/19 01:01:51;;;;;;;5.43;3.65;;;;;21.70;101157.00;;;;5049234;28;20666;-78
2021/08/19 01:04:18;;;;;;;6.25;3.42;;;;;21.70;101157.00;;;;5049405;28;20665;-77
2021/08/19 01:06:46;;;;;;;5.13;3.35;;;;;21.70;101151.00;;;;5048331;28;20195;-77
2021/08/19 01:09:14;;;;;;;4.65;3.78;;;;;21.70;101159.00;;;;5048847;28;20539;-77
2021/08/19 01:11:42;;;;;;;5.10;2.80;;;;;21.70;101161.00;;;;5049133;28;20223;-77
2021/08/19 01:14:13;;;;;;;4.10;3.70;;;;;21.70;101162.00;;;;5048761;28;20275;-77
2021/08/19 01:16:40;;;;;;;4.38;3.75;;;;;21.70;101150.00;;;;5048366;28;20195;-77
2021/08/19 01:19:07;;;;;;;4.28;3.08;;;;;21.70;101151.00;;;;5048826;28;20199;-77
2021/08/19 01:21:35;;;;;;;5.05;3.33;;;;;21.70;101152.00;;;;5049229;28;20215;-77
2021/08/19 01:24:02;;;;;;;3.92;3.30;;;;;21.70;101155.00;;;;5048988;28;20234;-77
2021/08/19 01:26:29;;;;;;;4.13;3.17;;;;;21.70;101151.00;;;;5048108;28;20204;-77
2021/08/19 01:28:59;;;;;;;5.85;3.78;;;;;21.70;101142.00;;;;5048920;28;20207;-77
2021/08/19 01:31:28;;;;;;;3.53;3.20;;;;;21.70;101141.00;;;;5048408;28;20998;-78
2021/08/19 01:33:55;;;;;;;4.07;3.05;;;;;21.80;101147.00;;;;5048645;28;20203;-77
2021/08/19 01:36:22;;;;;;;4.18;3.50;;;;;21.80;101147.00;;;;5047902;28;20227;-78
2021/08/19 01:38:51;;;;;;;4.93;3.35;;;;;21.80;101143.00;;;;5055125;28;20205;-77
2021/08/19 01:41:18;;;;;;;7.45;3.58;;;;;21.80;101146.00;;;;5068168;28;20229;-77
2021/08/19 01:43:48;;;;;;;4.57;3.85;;;;;21.80;101144.00;;;;5068134;28;20221;-77
2021/08/19 01:46:19;;;;;;;5.63;3.63;;;;;21.80;101141.00;;;;5068050;28;20206;-77
2021/08/19 01:48:47;;;;;;;4.88;3.80;;;;;21.80;101138.00;;;;5068370;28;20206;-77
2021/08/19 01:51:17;;;;;;;4.57;3.25;;;;;21.80;101145.00;;;;5068233;28;20226;-77
2021/08/19 01:53:44;;;;;;;4.25;3.15;;;;;21.80;101145.00;;;;5069202;28;20199;-77
2021/08/19 01:56:12;;;;;;;5.00;3.42;;;;;21.80;101140.00;;;;5067545;28;20206;-77
2021/08/19 01:58:39;;;;;;;4.28;3.33;;;;;21.80;101142.00;;;;5068437;28;20203;-77
2021/08/19 02:01:07;;;;;;;5.63;3.33;;;;;21.80;101138.00;;;;5068301;28;20225;-77
2021/08/19 02:03:35;;;;;;;7.47;3.83;;;;;21.80;101134.00;;;;5068980;28;20202;-77
2021/08/19 02:06:02;;;;;;;7.60;3.53;;;;;21.90;101142.00;;;;5068471;28;20206;-77
2021/08/19 02:08:30;;;;;;;3.97;3.20;;;;;21.90;101137.00;;;;5068175;28;20210;-77
2021/08/19 02:10:57;;;;;;;3.67;3.13;;;;;21.90;101131.00;;;;5068343;28;20219;-77
2021/08/19 02:13:24;;;;;;;4.50;3.50;;;;;21.90;101132.00;;;;5071121;28;20211;-77
2021/08/19 02:15:51;;;;;;;4.28;3.08;;;;;21.90;101130.00;;;;5072177;28;20206;-77
2021/08/19 02:18:18;;;;;;;5.28;3.80;;;;;21.90;101134.00;;;;5071864;28;20206;-77
2021/08/19 02:20:47;;;;;;;4.68;4.18;;;;;21.90;101130.00;;;;5072031;28;20210;-77
2021/08/19 02:23:14;;;;;;;4.50;3.83;;;;;21.90;101128.00;;;;5051885;28;20203;-77
2021/08/19 02:25:41;;;;;;;4.43;3.47;;;;;21.90;101128.00;;;;5052374;28;20202;-77
2021/08/19 02:28:09;;;;;;;5.88;4.13;;;;;21.90;101132.00;;;;5051776;28;20206;-77
2021/08/19 02:30:36;;;;;;;4.85;4.15;;;;;22.00;101129.00;;;;5052813;28;20211;-77
2021/08/19 02:33:03;;;;;;;5.38;3.63;;;;;22.00;101128.00;;;;5051855;28;20210;-77
2021/08/19 02:35:32;;;;;;;5.78;4.47;;;;;22.00;101136.00;;;;5050695;28;20306;-77
2021/08/19 02:38:05;;;;;;;6.45;4.28;;;;;22.00;101134.00;;;;5051938;28;20191;-77
2021/08/19 02:40:32;;;;;;;4.72;3.72;;;;;22.00;101140.00;;;;5051525;28;20222;-77
2021/08/19 02:42:59;;;;;;;4.93;3.80;;;;;22.00;101139.00;;;;5051353;28;20211;-77
2021/08/19 02:45:26;;;;;;;4.47;3.85;;;;;22.00;101132.00;;;;5051627;28;20199;-77
2021/08/19 02:47:53;;;;;;;5.55;4.28;;;;;22.00;101128.00;;;;5051917;28;20203;-77
2021/08/19 02:50:21;;;;;;;5.60;4.07;;;;;22.00;101129.00;;;;5051637;28;20199;-77
2021/08/19 02:52:48;;;;;;;6.05;4.82;;;;;22.00;101119.00;;;;5051255;28;20314;-77
2021/08/19 02:55:17;;;;;;;4.68;4.20;;;;;22.00;101119.00;;;;5051395;28;20210;-78
2021/08/19 02:57:44;;;;;;;5.63;4.75;;;;;22.00;101123.00;;;;5058064;28;20195;-77
2021/08/19 03:00:12;;;;;;;5.97;4.90;;;;;22.00;101122.00;;;;5071041;28;20253;-77
2021/08/19 03:02:39;;;;;;;7.47;5.45;;;;;22.10;101114.00;;;;5070749;28;20222;-77
2021/08/19 03:05:08;;;;;;;9.35;5.88;;;;;22.00;101114.00;;;;5053032;28;20298;-77
2021/08/19 03:07:35;;;;;;;8.32;6.03;;;;;22.10;101112.00;;;;5051030;28;20207;-77
2021/08/19 03:10:02;;;;;;;7.57;6.32;;;;;22.10;101112.00;;;;5051155;28;20208;-77
2021/08/19 03:12:31;;;;;;;7.85;5.40;;;;;22.10;101105.00;;;;5049882;28;20714;-77
2021/08/19 03:14:58;;;;;;;9.02;6.40;;;;;22.10;101101.00;;;;5050806;28;20211;-77
2021/08/19 03:17:27;;;;;;;8.10;6.28;;;;;22.10;101108.00;;;;5050081;28;20996;-78
2021/08/19 03:19:54;;;;;;;7.53;6.18;;;;;22.10;101106.00;;;;5049852;28;20207;-77
2021/08/19 03:22:21;;;;;;;8.18;6.03;;;;;22.20;101103.00;;;;5049836;28;20650;-77
2021/08/19 03:24:49;;;;;;;13.15;7.05;;;;;22.20;101105.00;;;;5049642;28;20203;-77
2021/08/19 03:27:16;;;;;;;10.10;7.38;;;;;22.20;101103.00;;;;5050153;28;20196;-77
2021/08/19 03:29:44;;;;;;;9.63;6.65;;;;;22.20;101101.00;;;;5050204;28;20226;-77
2021/08/19 03:32:12;;;;;;;8.80;6.18;;;;;22.20;101104.00;;;;5049578;28;20608;-78
2021/08/19 03:34:39;;;;;;;9.23;7.50;;;;;22.30;101110.00;;;;5050036;28;20199;-77
2021/08/19 03:37:07;;;;;;;8.52;6.03;;;;;22.30;101109.00;;;;5050310;28;20224;-78
2021/08/19 03:39:35;;;;;;;7.80;6.40;;;;;22.30;101103.00;;;;5069174;28;20310;-77
2021/08/19 03:42:03;;;;;;;8.18;6.15;;;;;22.30;101101.00;;;;5069769;28;20795;-78
2021/08/19 03:44:30;;;;;;;9.20;6.43;;;;;22.30;101095.00;;;;5069982;28;20203;-77
2021/08/19 03:46:59;;;;;;;8.82;6.18;;;;;22.30;101102.00;;;;5070383;28;20206;-77
2021/08/19 03:49:28;;;;;;;10.05;7.18;;;;;22.40;101103.00;;;;5070249;28;20203;-77
2021/08/19 03:51:55;;;;;;;8.77;6.88;;;;;22.40;101099.00;;;;5070333;28;20219;-78
2021/08/19 03:54:22;;;;;;;10.60;7.45;;;;;22.40;101104.00;;;;5069192;28;20198;-77
2021/08/19 03:56:50;;;;;;;10.93;7.18;;;;;22.40;101109.00;;;;5070136;28;20668;-78
2021/08/19 03:59:17;;;;;;;8.15;6.45;;;;;22.50;101112.00;;;;5069655;28;20202;-78
2021/08/19 04:01:44;;;;;;;10.18;6.65;;;;;22.50;101109.00;;;;5069948;28;20203;-77
2021/08/19 04:04:13;;;;;;;8.38;6.07;;;;;22.50;101110.00;;;;5069475;28;20206;-77
2021/08/19 04:06:40;;;;;;;9.85;6.03;;;;;22.50;101105.00;;;;5070039;28;20209;-77
2021/08/19 04:09:07;;;;;;;7.40;5.80;;;;;22.50;101105.00;;;;5070104;28;20293;-77
2021/08/19 04:11:35;;;;;;;11.48;7.57;;;;;22.50;101116.00;;;;5064854;28;20223;-77
2021/08/19 04:14:02;;;;;;;8.48;6.80;;;;;22.50;101108.00;;;;5050468;28;20187;-77
2021/08/19 04:16:29;;;;;;;13.13;6.45;;;;;22.50;101107.00;;;;5049548;28;20195;-77
2021/08/19 04:18:56;;;;;;;8.20;6.22;;;;;22.60;101111.00;;;;5049875;28;20194;-77
2021/08/19 04:21:25;;;;;;;8.10;6.65;;;;;22.60;101110.00;;;;5049355;28;20207;-77
2021/08/19 04:23:52;;;;;;;9.30;6.15;;;;;22.60;101110.00;;;;5049903;28;20208;-77
2021/08/19 04:26:19;;;;;;;8.00;6.43;;;;;22.60;101114.00;;;;5049643;28;20200;-77
2021/08/19 04:28:47;;;;;;;7.78;6.80;;;;;22.60;101114.00;;;;5055369;28;20203;-78
2021/08/19 04:31:14;;;;;;;9.73;6.53;;;;;22.60;101120.00;;;;5069542;28;20195;-77
2021/08/19 04:33:41;;;;;;;10.57;6.88;;;;;22.60;101116.00;;;;5069262;28;20206;-77
2021/08/19 04:36:08;;;;;;;8.68;6.40;;;;;22.60;101119.00;;;;5068888;28;20804;-77
2021/08/19 04:38:37;;;;;;;8.05;6.07;;;;;22.60;101123.00;;;;5069134;28;20199;-77
2021/08/19 04:41:04;;;;;;;8.45;6.28;;;;;22.70;101116.00;;;;5069207;28;20226;-77
2021/08/19 04:43:31;;;;;;;8.30;5.93;;;;;22.70;101118.00;;;;5069294;28;20206;-77
2021/08/19 04:45:59;;;;;;;8.63;5.65;;;;;22.70;101119.00;;;;5068707;28;20202;-78
2021/08/19 04:48:26;;;;;;;9.70;6.85;;;;;22.70;101118.00;;;;5068249;28;20417;-77
2021/08/19 04:50:53;;;;;;;12.40;6.68;;;;;22.70;101118.00;;;;5069514;28;20199;-77
2021/08/19 04:53:21;;;;;;;6.65;5.15;;;;;22.70;101115.00;;;;5069205;28;20233;-77
2021/08/19 04:55:49;;;;;;;9.35;5.60;;;;;22.70;101106.00;;;;5069434;28;20203;-77
2021/08/19 04:58:16;;;;;;;6.95;5.85;;;;;22.70;101111.00;;;;5068634;28;20207;-77
2021/08/19 05:00:44;;;;;;;10.25;6.43;;;;;22.70;101116.00;;;;5064848;28;20199;-78
2021/08/19 05:03:11;;;;;;;8.80;6.43;;;;;22.80;101106.00;;;;5049328;28;20697;-77
2021/08/19 05:05:38;;;;;;;7.60;6.35;;;;;22.80;101115.00;;;;5049144;28;20208;-77
2021/08/19 05:08:05;;;;;;;10.65;6.88;;;;;22.80;101114.00;;;;5048584;28;20203;-77
2021/08/19 05:10:33;;;;;;;9.60;6.75;;;;;22.80;101111.00;;;;5048902;28;20666;-77
2021/08/19 05:13:01;;;;;;;9.68;5.82;;;;;22.80;101115.00;;;;5049030;28;20234;-77
2021/08/19 05:15:28;;;;;;;7.43;5.43;;;;;22.80;101112.00;;;;5048710;28;20735;-77
2021/08/19 05:17:56;;;;;;;7.63;6.18;;;;;22.80;101118.00;;;;5048750;28;20199;-77
2021/08/19 05:20:23;;;;;;;8.00;5.97;;;;;22.80;101117.00;;;;5049749;28;20211;-77
2021/08/19 05:22:50;;;;;;;8.25;5.03;;;;;22.80;101117.00;;;;5048127;28;20381;-77
2021/08/19 05:25:17;;;;;;;7.82;6.55;;;;;22.80;101127.00;;;;5048649;28;20576;-77
2021/08/19 05:27:45;;;;;;;7.95;6.28;;;;;22.80;101123.00;;;;5048841;28;20194;-77
2021/08/19 05:30:14;;;;;;;12.15;5.70;;;;;22.80;101131.00;;;;5048356;28;20608;-77
2021/08/19 05:32:41;;;;;;;7.05;5.43;;;;;22.90;101126.00;;;;5049116;28;20238;-77
2021/08/19 05:35:09;;;;;;;8.32;6.20;;;;;22.80;101119.00;;;;5048699;28;20206;-77
2021/08/19 05:37:36;;;;;;;7.55;6.00;;;;;22.90;101128.00;;;;5048950;28;20235;-77
2021/08/19 05:40:04;;;;;;;8.38;5.72;;;;;22.90;101132.00;;;;5049017;28;20200;-77
2021/08/19 05:42:31;;;;;;;8.55;6.25;;;;;22.90;101133.00;;;;5048972;28;20206;-78
2021/08/19 05:44:59;;;;;;;8.73;6.15;;;;;22.90;101136.00;;;;5048980;28;20688;-77
2021/08/19 05:47:28;;;;;;;9.75;5.95;;;;;22.90;101133.00;;;;5051088;28;20218;-77
2021/08/19 05:49:55;;;;;;;8.52;5.10;;;;;22.90;101147.00;;;;5052447;28;20211;-77
2021/08/19 05:52:22;;;;;;;7.07;5.18;;;;;22.90;101142.00;;;;5052406;28;20610;-77
2021/08/19 05:54:49;;;;;;;8.35;4.80;;;;;22.90;101139.00;;;;5052997;28;20203;-77
2021/08/19 05:57:17;;;;;;;11.10;5.30;;;;;22.90;101140.00;;;;5053357;28;20204;-77
2021/08/19 05:59:44;;;;;;;6.65;5.03;;;;;22.90;101146.00;;;;5063565;28;20273;-77
2021/08/19 06:02:11;;;;;;;6.13;4.15;;;;;22.90;101147.00;;;;5051821;28;20204;-77
2021/08/19 06:04:40;;;;;;;7.68;4.93;;;;;22.90;101146.00;;;;5052519;28;20214;-77
2021/08/19 06:07:07;;;;;;;6.57;4.97;;;;;22.90;101146.00;;;;5051760;28;20665;-77
2021/08/19 06:09:35;;;;;;;9.20;5.00;;;;;22.90;101150.00;;;;5052662;28;20207;-77
2021/08/19 06:12:02;;;;;;;7.13;4.30;;;;;22.90;101154.00;;;;5052938;28;20226;-77
2021/08/19 06:14:30;;;;;;;6.57;4.50;;;;;22.90;101151.00;;;;5051664;28;20207;-77
2021/08/19 06:16:57;;;;;;;5.38;4.05;;;;;22.90;101151.00;;;;5052172;28;20199;-77
2021/08/19 06:19:24;;;;;;;5.35;3.50;;;;;22.90;101154.00;;;;5051595;28;20216;-77
2021/08/19 06:21:54;;;;;;;5.35;3.72;;;;;22.90;101155.00;;;;5052454;28;20203;-77
2021/08/19 06:24:21;;;;;;;6.70;4.13;;;;;22.90;101156.00;;;;5052140;28;20207;-77
2021/08/19 06:26:48;;;;;;;6.60;4.32;;;;;22.90;101158.00;;;;5051353;28;20208;-77
2021/08/19 06:29:15;;;;;;;8.40;4.25;;;;;22.90;101153.00;;;;5052475;28;20215;-77
2021/08/19 06:31:43;;;;;;;7.93;3.85;;;;;22.90;101154.00;;;;5052247;28;20207;-77
2021/08/19 06:34:10;;;;;;;5.10;3.92;;;;;22.90;101150.00;;;;5051209;28;20210;-77
2021/08/19 06:36:37;;;;;;;5.10;3.95;;;;;23.00;101144.00;;;;5051423;28;20228;-77
2021/08/19 06:39:06;;;;;;;5.95;4.00;;;;;23.00;101140.00;;;;5051440;28;20226;-77
2021/08/19 06:41:33;;;;;;;5.90;3.50;;;;;23.00;101144.00;;;;5051668;28;20223;-77
2021/08/19 06:44:00;;;;;;;6.20;3.30;;;;;23.00;101143.00;;;;5052434;28;20199;-77
2021/08/19 06:46:27;;;;;;;5.30;3.50;;;;;23.00;101146.00;;;;5051734;28;20196;-77
2021/08/19 06:48:55;;;;;;;5.85;3.83;;;;;23.00;101149.00;;;;5050782;28;20222;-77
2021/08/19 06:51:22;;;;;;;4.35;3.03;;;;;23.00;101152.00;;;;5051576;28;20208;-77
2021/08/19 06:53:49;;;;;;;6.78;4.10;;;;;23.00;101145.00;;;;5051167;28;20230;-77
2021/08/19 06:56:18;;;;;;;6.18;3.22;;;;;23.00;101149.00;;;;5051085;28;20200;-77
2021/08/19 06:58:45;;;;;;;9.05;4.35;;;;;23.00;101151.00;;;;5051057;28;20207;-77
2021/08/19 07:01:12;;;;;;;5.35;3.17;;;;;23.10;101148.00;;;;5051163;28;20245;-77
2021/08/19 07:03:39;;;;;;;5.93;3.92;;;;;23.10;101152.00;;;;5051651;28;20203;-77
2021/08/19 07:06:10;;;;;;;9.35;4.20;;;;;23.10;101156.00;;;;5050531;28;20192;-76
2021/08/19 07:08:37;;;;;;;8.80;5.05;;;;;23.10;101142.00;;;;5051429;28;20192;-77
2021/08/19 07:11:04;;;;;;;11.07;4.53;;;;;23.10;101153.00;;;;5051508;28;20192;-77
2021/08/19 07:13:33;;;;;;;6.47;4.28;;;;;23.10;101154.00;;;;5051062;28;20223;-76
2021/08/19 07:16:00;;;;;;;6.65;4.00;;;;;23.10;101157.00;;;;5051588;28;20212;-76
2021/08/19 07:18:27;;;;;;;5.72;3.95;;;;;23.20;101157.00;;;;5050914;28;20214;-77
2021/08/19 07:20:55;;;;;;;5.70;4.15;;;;;23.20;101156.00;;;;5050288;28;20204;-77
2021/08/19 07:23:22;;;;;;;5.50;3.67;;;;;23.20;101159.00;;;;5050643;28;20206;-77
2021/08/19 07:25:49;;;;;;;6.30;4.60;;;;;23.20;101156.00;;;;5050450;28;20210;-77
2021/08/19 07:28:17;;;;;;;7.13;4.72;;;;;23.30;101156.00;;;;5050740;28;20211;-76
2021/08/19 07:30:45;;;;;;;5.53;4.38;;;;;23.20;101158.00;;;;5050635;28;20200;-77
2021/08/19 07:33:13;;;;;;;9.30;4.75;;;;;23.30;101166.00;;;;5050539;28;20231;-77
2021/08/19 07:35:40;;;;;;;9.43;5.07;;;;;23.30;101162.00;;;;5050688;28;20200;-77
2021/08/19 07:38:07;;;;;;;10.77;5.50;;;;;23.30;101169.00;;;;5050300;28;20202;-76
2021/08/19 07:40:36;;;;;;;8.05;4.78;;;;;23.30;101169.00;;;;5049914;28;20212;-77
2021/08/19 07:43:03;;;;;;;10.75;4.78;;;;;23.30;101168.00;;;;5051081;28;20203;-77
2021/08/19 07:45:30;;;;;;;7.07;4.68;;;;;23.30;101171.00;;;;5050357;28;20623;-76
2021/08/19 07:48:06;;;;;;;6.97;5.03;;;;;23.30;101173.00;;;;5049981;28;20204;-77
2021/08/19 07:50:34;;;;;;;11.35;4.47;;;;;23.40;101182.00;;;;5050486;28;20203;-77
2021/08/19 07:53:01;;;;;;;7.43;4.60;;;;;23.40;101174.00;;;;5050328;28;20230;-77
2021/08/19 07:55:28;;;;;;;7.07;4.60;;;;;23.40;101175.00;;;;5050070;28;20204;-77
2021/08/19 07:57:55;;;;;;;5.22;3.97;;;;;23.40;101172.00;;;;5058047;28;20657;-77
2021/08/19 08:00:26;;;;;;;8.63;5.20;;;;;23.40;101171.00;;;;5069658;28;20202;-77
2021/08/19 08:02:54;;;;;;;8.15;4.65;;;;;23.50;101171.00;;;;5070076;28;20250;-78
2021/08/19 08:05:24;;;;;;;7.07;4.22;;;;;23.50;101172.00;;;;5070359;28;20207;-76
2021/08/19 08:07:52;;;;;;;7.68;3.70;;;;;23.50;101178.00;;;;5069746;28;20195;-76
2021/08/19 08:10:19;;;;;;;8.18;4.50;;;;;23.50;101182.00;;;;5058085;28;20203;-77
2021/08/19 08:12:47;;;;;;;5.10;4.07;;;;;23.50;101178.00;;;;5049511;28;20250;-77
2021/08/19 08:15:14;;;;;;;7.53;4.00;;;;;23.50;101183.00;;;;5050324;28;20207;-77
2021/08/19 08:17:41;;;;;;;6.18;4.10;;;;;23.50;101184.00;;;;5049974;28;20203;-77
2021/08/19 08:20:11;;;;;;;8.70;4.38;;;;;23.50;101182.00;;;;5049615;28;20304;-77
2021/08/19 08:22:43;;;;;;;6.65;4.00;;;;;23.60;101187.00;;;;5049629;28;20682;-77
2021/08/19 08:25:11;;;;;;;4.55;3.60;;;;;23.60;101179.00;;;;5048819;28;20294;-77
2021/08/19 08:27:49;;;;;;;6.38;3.78;;;;;23.60;101180.00;;;;5050309;28;20203;-77
2021/08/19 08:30:16;;;;;;;6.00;3.92;;;;;23.60;101178.00;;;;5049516;28;20210;-78
2021/08/19 08:32:43;;;;;;;8.00;3.95;;;;;23.60;101188.00;;;;5049611;28;20238;-77
2021/08/19 08:35:12;;;;;;;5.15;3.95;;;;;23.60;101176.00;;;;5049268;28;20203;-77
2021/08/19 08:37:41;;;;;;;6.05;4.22;;;;;23.60;101188.00;;;;5049409;28;20242;-77
2021/08/19 08:40:12;;;;;;;7.13;4.13;;;;;23.60;101182.00;;;;5049182;28;20208;-77
2021/08/19 08:42:40;;;;;;;7.65;4.38;;;;;23.60;101189.00;;;;5049134;28;20577;-76
2021/08/19 08:45:08;;;;;;;5.65;4.22;;;;;23.60;101188.00;;;;5049968;28;20575;-77
2021/08/19 08:47:37;;;;;;;6.75;4.00;;;;;23.60;101194.00;;;;5049365;28;20203;-76
2021/08/19 08:50:05;;;;;;;4.07;3.67;;;;;23.60;101192.00;;;;5048988;28;20674;-77
2021/08/19 08:52:34;;;;;;;6.10;4.30;;;;;23.60;101192.00;;;;5049306;28;20203;-77
2021/08/19 08:55:04;;;;;;;7.28;4.28;;;;;23.70;101189.00;;;;5049027;28;20219;-77
2021/08/19 08:57:34;;;;;;;4.90;3.88;;;;;23.70;101198.00;;;;5050353;28;20198;-77
2021/08/19 09:00:01;;;;;;;6.25;4.35;;;;;23.80;101202.00;;;;5060660;28;20649;-76
2021/08/19 09:02:29;;;;;;;7.22;4.47;;;;;23.80;101201.00;;;;5049061;28;20194;-78
2021/08/19 09:05:16;;;;;;;6.68;4.43;;;;;23.70;101202.00;;;;5048455;28;20208;-76
2021/08/19 09:07:44;;;;;;;5.15;3.97;;;;;23.90;101206.00;;;;5048949;28;20661;-78
2021/08/19 09:10:14;;;;;;;6.40;4.35;;;;;23.90;101205.00;;;;5048644;28;20689;-79
2021/08/19 09:12:42;;;;;;;6.72;4.65;;;;;23.90;101210.00;;;;5048853;28;20192;-77
2021/08/19 09:15:14;;;;;;;6.72;4.90;;;;;23.90;101213.00;;;;5048709;28;20199;-77
2021/08/19 09:17:49;;;;;;;5.53;4.63;;;;;24.00;101213.00;;;;5049051;28;20213;-77
2021/08/19 09:20:17;;;;;;;5.25;3.92;;;;;24.00;101225.00;;;;5048114;28;20785;-77
2021/08/19 09:22:58;;;;;;;4.85;4.35;;;;;24.00;101223.00;;;;5048458;28;20202;-77
2021/08/19 09:25:33;;;;;;;7.03;4.30;;;;;24.00;101222.00;;;;5048720;28;20199;-76
2021/08/19 09:28:19;;;;;;;6.95;5.22;;;;;24.00;101224.00;;;;5049106;28;20191;-77
2021/08/19 09:30:49;;;;;;;5.20;4.07;;;;;24.20;101226.00;;;;5048960;28;20577;-76
2021/08/19 09:33:19;;;;;;;5.47;4.30;;;;;24.20;101221.00;;;;5048234;28;20233;-77
2021/08/19 09:35:48;;;;;;;4.72;4.28;;;;;24.20;101230.00;;;;5049727;28;20235;-78
2021/08/19 09:38:17;;;;;;;5.80;5.20;;;;;24.20;101224.00;;;;5048798;28;20198;-77
2021/08/19 09:41:03;;;;;;;6.47;4.82;;;;;24.10;101228.00;;;;5049002;28;20231;-77
2021/08/19 09:43:41;;;;;;;6.75;4.25;;;;;24.10;101228.00;;;;5048910;28;20290;-77
2021/08/19 09:46:10;;;;;;;5.70;4.57;;;;;24.30;101231.00;;;;5048255;28;20200;-77
2021/08/19 09:48:37;;;;;;;6.63;3.97;;;;;24.30;101230.00;;;;5048407;28;20211;-77
2021/08/19 09:51:19;;;;;;;7.35;5.35;;;;;24.20;101231.00;;;;5049450;28;20203;-77
2021/08/19 09:53:48;;;;;;;5.20;4.47;;;;;24.30;101230.00;;;;5048423;28;20269;-77
2021/08/19 09:56:29;;;;;;;6.80;5.43;;;;;24.20;101227.00;;;;5048181;28;20208;-76
2021/08/19 09:59:16;;;;;;;5.88;4.97;;;;;24.30;101222.00;;;;5064117;28;20203;-77
2021/08/19 10:01:43;;;;;;;4.90;4.40;;;;;24.30;101220.00;;;;5068442;28;20202;-77
2021/08/19 10:04:11;;;;;;;5.90;5.30;;;;;24.40;101221.00;;;;5068595;28;20195;-78
2021/08/19 10:06:38;;;;;;;6.03;4.90;;;;;24.30;101227.00;;;;5067978;28;20207;-76
2021/08/19 10:09:05;;;;;;;6.28;5.25;;;;;24.40;101220.00;;;;5058564;28;20200;-77
2021/08/19 10:11:34;;;;;;;8.48;4.88;;;;;24.30;101218.00;;;;5048606;28;20207;-77
2021/08/19 10:14:02;;;;;;;5.05;4.50;;;;;24.40;101224.00;;;;5049101;28;20273;-77
2021/08/19 10:16:32;;;;;;;8.10;4.70;;;;;24.40;101220.00;;;;5048048;28;20218;-77
2021/08/19 10:19:02;;;;;;;7.43;4.85;;;;;24.40;101220.00;;;;5047646;28;20203;-77
2021/08/19 10:21:30;;;;;;;4.35;3.95;;;;;24.40;101225.00;;;;5047694;28;20674;-77
2021/08/19 10:23:59;;;;;;;5.28;4.22;;;;;24.40;101222.00;;;;5048750;28;20219;-78
2021/08/19 10:26:26;;;;;;;5.80;4.43;;;;;24.40;101225.00;;;;5048605;28;20230;-77
2021/08/19 10:28:57;;;;;;;4.90;4.20;;;;;24.40;101224.00;;;;5048269;28;20203;-77
2021/08/19 10:31:42;;;;;;;6.43;4.65;;;;;24.30;101223.00;;;;5048087;28;20203;-77
2021/08/19 10:34:11;;;;;;;4.80;4.30;;;;;24.40;101223.00;;;;5050818;28;20250;-77
2021/08/19 10:36:55;;;;;;;5.72;4.45;;;;;24.30;101215.00;;;;5050888;28;20763;-77
2021/08/19 10:39:32;;;;;;;6.22;3.90;;;;;24.30;101226.00;;;;5051376;28;20207;-76
2021/08/19 10:42:00;;;;;;;5.82;3.83;;;;;24.40;101222.00;;;;5051497;28;20585;-75
2021/08/19 10:44:34;;;;;;;8.93;5.30;;;;;24.40;101223.00;;;;5051519;28;20203;-75
2021/08/19 10:47:02;;;;;;;4.55;4.15;;;;;24.40;101225.00;;;;5051555;28;20737;-75
2021/08/19 10:49:41;;;;;;;5.25;4.18;;;;;24.30;101225.00;;;;5050889;28;20214;-75
2021/08/19 10:52:30;;;;;;;7.80;4.90;;;;;24.20;101220.00;;;;5051605;28;20229;-75
2021/08/19 10:55:15;;;;;;;6.00;4.40;;;;;24.20;101225.00;;;;5050825;28;20733;-75
2021/08/19 10:57:50;;;;;;;4.75;4.35;;;;;24.20;101217.00;;;;5050684;28;20192;-75
2021/08/19 11:00:34;;;;;;;5.28;4.22;;;;;24.20;101223.00;;;;5050753;28;20210;-75
2021/08/19 11:03:01;;;;;;;6.85;4.22;;;;;24.20;101225.00;;;;5051577;28;20204;-75
2021/08/19 11:05:53;;;;;;;6.78;4.50;;;;;24.10;101224.00;;;;5050726;28;20688;-75
2021/08/19 11:08:38;;;;;;;7.03;4.00;;;;;24.10;101223.00;;;;5051129;28;20218;-75
2021/08/19 11:11:05;;;;;;;4.53;4.07;;;;;24.20;101223.00;;;;5051140;28;20273;-75
2021/08/19 11:13:34;;;;;;;5.25;4.25;;;;;24.20;101227.00;;;;5051057;28;20226;-75
2021/08/19 11:16:07;;;;;;;5.60;4.30;;;;;24.20;101225.00;;;;5050716;28;20207;-75
2021/08/19 11:18:36;;;;;;;5.43;4.20;;;;;24.20;101227.00;;;;5050925;28;20253;-75
2021/08/19 11:21:04;;;;;;;4.72;4.28;;;;;24.20;101230.00;;;;5051144;28;20211;-76
2021/08/19 11:23:33;;;;;;;6.18;4.38;;;;;24.20;101236.00;;;;5051208;28;20230;-76
2021/08/19 11:26:02;;;;;;;5.65;4.00;;;;;24.20;101242.00;;;;5050807;28;20222;-76
2021/08/19 11:28:36;;;;;;;5.38;3.45;;;;;24.10;101238.00;;;;5050934;28;20728;-76
2021/08/19 11:31:11;;;;;;;6.10;3.83;;;;;24.10;101245.00;;;;5050971;28;20203;-76
2021/08/19 11:33:39;;;;;;;4.95;3.88;;;;;24.10;101250.00;;;;5050558;28;20231;-76
2021/08/19 11:36:08;;;;;;;5.05;3.60;;;;;24.10;101247.00;;;;5050302;28;20289;-77
2021/08/19 11:38:36;;;;;;;5.57;4.20;;;;;24.10;101250.00;;;;5050215;28;20204;-76
2021/08/19 11:41:13;;;;;;;5.90;3.20;;;;;24.00;101246.00;;;;5050594;28;20219;-75
2021/08/19 11:43:42;;;;;;;3.15;2.85;;;;;24.10;101251.00;;;;5050384;28;20284;-76
2021/08/19 11:46:13;;;;;;;4.55;3.45;;;;;24.10;101254.00;;;;5049994;28;20199;-77
2021/08/19 11:48:49;;;;;;;4.35;3.95;;;;;24.00;101259.00;;;;5050267;28;20199;-76
2021/08/19 11:51:22;;;;;;;7.97;3.25;;;;;24.00;101264.00;;;;5050187;28;20253;-76
2021/08/19 11:53:51;;;;;;;3.75;3.45;;;;;24.00;101255.00;;;;5050234;28;20231;-76
2021/08/19 11:56:19;;;;;;;3.03;2.78;;;;;24.00;101253.00;;;;5049776;28;20207;-76
2021/08/19 11:58:47;;;;;;;3.15;2.88;;;;;24.00;101259.00;;;;5049738;28;20555;-77
2021/08/19 12:01:16;;;;;;;4.45;2.75;;;;;24.00;101254.00;;;;5050046;28;20696;-76
2021/08/19 12:03:45;;;;;;;4.65;2.97;;;;;24.00;101256.00;;;;5049645;28;20200;-75
2021/08/19 12:06:14;;;;;;;3.83;3.05;;;;;24.00;101263.00;;;;5049880;28;20207;-76
2021/08/19 12:08:48;;;;;;;5.53;2.95;;;;;23.90;101269.00;;;;5050291;28;20218;-76
2021/08/19 12:11:18;;;;;;;3.05;2.83;;;;;24.00;101273.00;;;;5050233;28;20273;-75
2021/08/19 12:13:45;;;;;;;2.67;2.45;;;;;24.00;101266.00;;;;5049809;28;20698;-76
2021/08/19 12:16:18;;;;;;;3.70;3.17;;;;;23.90;101268.00;;;;5049895;28;20204;-76